Time,TemperatureF,DewpointF,PressureIn,WindDirection,WindDirectionDegrees,WindSpeedMPH,WindSpeedGustMPH,Humidity,HourlyPrecipIn,Conditions,Clouds,dailyrainin,SoftwareType,DateUTC
2013-04-16 00:00:00,46.0,44.0,29.42,North,-999,-999.0,-999.0,92,-99.99,,,-99.99,,2013-04-15 23:00:00,
2013-04-16 00:41:00,46.0,44.0,29.42,North,-999,-999.0,-999.0,92,-99.99,,,-99.99,,2013-04-15 23:41:00,
2013-04-16 00:51:00,46.0,44.0,29.42,North,-999,-999.0,-999.0,92,-99.99,,,-99.99,,2013-04-15 23:51:00,
2013-04-16 01:00:00,49.0,41.0,29.39,North,-999,-999.0,-999.0,76,-99.99,,,-99.99,,2013-04-16 00:00:00,
2013-04-16 01:41:00,49.0,41.0,29.39,North,-999,-999.0,-999.0,76,-99.99,,,-99.99,,2013-04-16 00:41:00,
2013-04-16 01:51:00,49.0,41.0,29.39,North,-999,-999.0,-999.0,76,-99.99,,,-99.99,,2013-04-16 00:51:00,
2013-04-16 02:00:00,46.0,43.0,29.36,North,-999,-999.0,-999.0,88,-99.99,,,-99.99,,2013-04-16 01:00:00,
2013-04-16 02:41:00,46.0,43.0,29.36,North,-999,-999.0,-999.0,88,-99.99,,,-99.99,,2013-04-16 01:41:00,
2013-04-16 02:51:00,46.0,43.0,29.36,North,-999,-999.0,-999.0,88,-99.99,,,-99.99,,2013-04-16 01:51:00,
2013-04-16 03:00:00,48.0,44.0,29.25,North,-999,-999.0,-999.0,86,-99.99,,,-99.99,,2013-04-16 02:00:00,
2013-04-16 03:42:00,48.0,44.0,29.25,North,-999,-999.0,-999.0,86,-99.99,,,-99.99,,2013-04-16 02:42:00,
2013-04-16 03:51:00,48.0,44.0,29.25,North,-999,-999.0,-999.0,86,-99.99,,,-99.99,,2013-04-16 02:51:00,
2013-04-16 04:00:00,49.0,44.0,29.24,North,-999,-999.0,-999.0,80,-99.99,,,-99.99,,2013-04-16 03:00:00,
2013-04-16 04:43:00,49.0,44.0,29.24,North,-999,-999.0,-999.0,80,-99.99,,,-99.99,,2013-04-16 03:43:00,
2013-04-16 04:52:00,49.0,44.0,29.24,North,-999,-999.0,-999.0,80,-99.99,,,-99.99,,2013-04-16 03:52:00,
2013-04-16 05:00:00,48.0,43.0,29.23,North,-999,-999.0,-999.0,82,-99.99,,,-99.99,,2013-04-16 04:00:00,
2013-04-16 05:42:00,48.0,43.0,29.23,North,-999,-999.0,-999.0,82,-99.99,,,-99.99,,2013-04-16 04:42:00,
2013-04-16 05:52:00,48.0,43.0,29.23,North,-999,-999.0,-999.0,82,-99.99,,,-99.99,,2013-04-16 04:52:00,
2013-04-16 06:00:00,47.0,43.0,29.20,North,-999,-999.0,-999.0,86,-99.99,,,-99.99,,2013-04-16 05:00:00,
2013-04-16 06:42:00,47.0,43.0,29.20,North,-999,-999.0,-999.0,86,-99.99,,,-99.99,,2013-04-16 05:42:00,
2013-04-16 06:51:00,47.0,43.0,29.20,North,-999,-999.0,-999.0,86,-99.99,,,-99.99,,2013-04-16 05:51:00,
2013-04-16 07:00:00,48.0,43.0,29.22,North,-999,-999.0,-999.0,83,-99.99,,,-99.99,,2013-04-16 06:00:00,
2013-04-16 07:41:00,48.0,43.0,29.22,North,-999,-999.0,-999.0,83,-99.99,,,-99.99,,2013-04-16 06:41:00,
2013-04-16 07:51:00,48.0,43.0,29.22,North,-999,-999.0,-999.0,83,-99.99,,,-99.99,,2013-04-16 06:51:00,
2013-04-16 09:00:00,47.0,44.0,29.23,North,-999,-999.0,-999.0,90,-99.99,,,-99.99,,2013-04-16 08:00:00,
2013-04-16 09:41:00,47.0,44.0,29.23,North,-999,-999.0,-999.0,90,-99.99,,,-99.99,,2013-04-16 08:41:00,
2013-04-16 09:51:00,47.0,44.0,29.23,North,-999,-999.0,-999.0,90,-99.99,,,-99.99,,2013-04-16 08:51:00,
2013-04-16 10:00:00,47.0,45.0,29.27,North,-999,-999.0,-999.0,90,-99.99,,,-99.99,,2013-04-16 09:00:00,
2013-04-16 10:42:00,47.0,45.0,29.27,North,-999,-999.0,-999.0,90,-99.99,,,-99.99,,2013-04-16 09:42:00,
2013-04-16 10:52:00,47.0,45.0,29.27,North,-999,-999.0,-999.0,90,-99.99,,,-99.99,,2013-04-16 09:52:00,
2013-04-16 11:00:00,47.0,45.0,29.31,North,-999,-999.0,-999.0,92,-99.99,,,-99.99,,2013-04-16 10:00:00,
2013-04-16 11:42:00,47.0,45.0,29.31,North,-999,-999.0,-999.0,92,-99.99,,,-99.99,,2013-04-16 10:42:00,
2013-04-16 11:52:00,47.0,45.0,29.31,North,-999,-999.0,-999.0,92,-99.99,,,-99.99,,2013-04-16 10:52:00,
2013-04-16 12:00:00,47.0,45.0,29.38,North,-999,-999.0,-999.0,93,-99.99,,,-99.99,,2013-04-16 11:00:00,
2013-04-16 12:41:00,47.0,45.0,29.38,North,-999,-999.0,-999.0,93,-99.99,,,-99.99,,2013-04-16 11:41:00,
2013-04-16 12:52:00,47.0,45.0,29.38,North,-999,-999.0,-999.0,93,-99.99,,,-99.99,,2013-04-16 11:52:00,
2013-04-16 13:00:00,47.0,44.0,29.44,North,-999,-999.0,-999.0,87,-99.99,,,-99.99,,2013-04-16 12:00:00,
2013-04-16 13:41:00,47.0,44.0,29.44,North,-999,-999.0,-999.0,87,-99.99,,,-99.99,,2013-04-16 12:41:00,
2013-04-16 13:51:00,47.0,44.0,29.44,North,-999,-999.0,-999.0,87,-99.99,,,-99.99,,2013-04-16 12:51:00,
2013-04-16 14:00:00,48.0,43.0,29.50,North,-999,-999.0,-999.0,81,-99.99,,,-99.99,,2013-04-16 13:00:00,
2013-04-16 14:42:00,48.0,43.0,29.50,North,-999,-999.0,-999.0,81,-99.99,,,-99.99,,2013-04-16 13:42:00,
2013-04-16 14:52:00,48.0,43.0,29.50,North,-999,-999.0,-999.0,81,-99.99,,,-99.99,,2013-04-16 13:52:00,
2013-04-16 15:00:00,48.0,42.0,29.56,North,-999,-999.0,-999.0,80,-99.99,,,-99.99,,2013-04-16 14:00:00,
2013-04-16 15:41:00,48.0,42.0,29.56,North,-999,-999.0,-999.0,80,-99.99,,,-99.99,,2013-04-16 14:41:00,
2013-04-16 15:51:00,48.0,42.0,29.56,North,-999,-999.0,-999.0,80,-99.99,,,-99.99,,2013-04-16 14:51:00,
2013-04-16 16:00:00,49.0,41.0,29.60,North,-999,-999.0,-999.0,71,-99.99,,,-99.99,,2013-04-16 15:00:00,
2013-04-16 16:43:00,49.0,41.0,29.60,North,-999,-999.0,-999.0,71,-99.99,,,-99.99,,2013-04-16 15:43:00,
2013-04-16 16:52:00,49.0,41.0,29.60,North,-999,-999.0,-999.0,71,-99.99,,,-99.99,,2013-04-16 15:52:00,
2013-04-16 17:00:00,48.0,40.0,29.65,North,-999,-999.0,-999.0,71,-99.99,,,-99.99,,2013-04-16 16:00:00,
2013-04-16 17:32:00,48.0,40.0,29.65,North,-999,-999.0,-999.0,71,-99.99,,,-99.99,,2013-04-16 16:32:00,
2013-04-16 17:41:00,48.0,40.0,29.65,North,-999,-999.0,-999.0,71,-99.99,,,-99.99,,2013-04-16 16:41:00,
2013-04-16 17:52:00,48.0,40.0,29.65,North,-999,-999.0,-999.0,71,-99.99,,,-99.99,,2013-04-16 16:52:00,
2013-04-16 18:00:00,48.0,40.0,29.69,North,-999,-999.0,-999.0,73,-99.99,,,-99.99,,2013-04-16 17:00:00,
2013-04-16 18:43:00,48.0,40.0,29.69,North,-999,-999.0,-999.0,73,-99.99,,,-99.99,,2013-04-16 17:43:00,
2013-04-16 18:52:00,48.0,40.0,29.69,North,-999,-999.0,-999.0,73,-99.99,,,-99.99,,2013-04-16 17:52:00,
2013-04-16 19:00:00,47.0,39.0,29.71,North,-999,-999.0,-999.0,75,-99.99,,,-99.99,,2013-04-16 18:00:00,
2013-04-16 19:41:00,47.0,39.0,29.71,North,-999,-999.0,-999.0,75,-99.99,,,-99.99,,2013-04-16 18:41:00,
2013-04-16 19:51:00,47.0,39.0,29.71,North,-999,-999.0,-999.0,75,-99.99,,,-99.99,,2013-04-16 18:51:00,
2013-04-16 20:00:00,47.0,41.0,29.73,North,-999,-999.0,-999.0,80,-99.99,,,-99.99,,2013-04-16 19:00:00,
2013-04-16 20:41:00,47.0,41.0,29.73,North,-999,-999.0,-999.0,80,-99.99,,,-99.99,,2013-04-16 19:41:00,
2013-04-16 20:52:00,47.0,41.0,29.73,North,-999,-999.0,-999.0,80,-99.99,,,-99.99,,2013-04-16 19:52:00,
2013-04-16 21:00:00,46.0,41.0,29.77,North,-999,-999.0,-999.0,82,-99.99,,,-99.99,,2013-04-16 20:00:00,
2013-04-16 21:41:00,46.0,41.0,29.77,North,-999,-999.0,-999.0,82,-99.99,,,-99.99,,2013-04-16 20:41:00,
2013-04-16 21:51:00,46.0,41.0,29.77,North,-999,-999.0,-999.0,82,-99.99,,,-99.99,,2013-04-16 20:51:00,
2013-04-16 22:00:00,46.0,41.0,29.80,North,-999,-999.0,-999.0,83,-99.99,,,-99.99,,2013-04-16 21:00:00,
2013-04-16 22:42:00,46.0,41.0,29.80,North,-999,-999.0,-999.0,83,-99.99,,,-99.99,,2013-04-16 21:42:00,
2013-04-16 22:52:00,46.0,41.0,29.80,North,-999,-999.0,-999.0,83,-99.99,,,-99.99,,2013-04-16 21:52:00,
2013-04-16 23:00:00,47.0,41.0,29.81,North,-999,-999.0,-999.0,80,-99.99,,,-99.99,,2013-04-16 22:00:00,
2013-04-16 23:42:00,47.0,41.0,29.81,North,-999,-999.0,-999.0,80,-99.99,,,-99.99,,2013-04-16 22:42:00,
2013-04-16 23:52:00,47.0,41.0,29.81,North,-999,-999.0,-999.0,80,-99.99,,,-99.99,,2013-04-16 22:52:00,